Dor Peretz

Recruteur en chef - Maccabi Haifa
24 Sept 2028
Dimanche
Processus

Personnalité

Adaptabilité (6) Ambition (14) Controverse (7) Loyauté (18) Pression (10) Professionnalisme (12) Sportivité (19) Tempérament (1)

Profil

Style d'entraînement Démocratique
Diplôme Continental Pro
Détermination 12
Gestion des joueurs 8
Motivation 10
Discipline 4
Satisfaction professionnelle
100%
Fatigue
0%
Rôle Recruteur en chef
Salaire 58.5K p/s
Contrat 14.03.2029

Performance

Comportement Bon
Efficacité de l'entraînement
48%
Développement des joueurs
20%
Prévention des blessures
50%
Mise en place tactique
60%

Événements récents

A participé à une réunion de recrutement maintenant
A participé à une réunion de recrutement maintenant
A participé à une réunion de recrutement 7j
A participé à une réunion de recrutement 7j
A participé à une réunion de recrutement 7j
A observé un match 7j
A participé à une réunion de recrutement 14j
A observé un match 14j

Suivi en cours

214
Joueur Club Statut Capacité Confiance Observé Dernière observation Dernier vote
Sayed Abu Farchi Maccabi Tel Aviv Refusé 136 / 133 69% 1 07.08.2028 Refuser
Andrey Ivlev Nizhniy Novgorod Actif 124 / 117 40% 1 03.07.2028 -
Mattia Esposito Virtus Verona Actif 80 / 92 40% 1 03.07.2028 -
Mees Rijks Bristol Rovers Actif 128 / 125 40% 1 28.06.2028 -
Daniel Jebbison Bournemouth Actif 133 / 121 40% 1 28.06.2028 -
John Yeboah Venezia Actif 131 / 127 40% 1 28.06.2028 -
Isaac Oppong Hapoel Raanana Perdu 100 / 97 69% 1 12.06.2028 Approuver
Romelle Donovan Brentford Actif 128 / 137 40% 7 03.06.2028 -
Fletcher Boyd Accrington Stanley Actif 102 / 104 40% 5 03.06.2028 -
Louis Zecevic-John Colchester United Actif 108 / 111 40% 1 03.06.2028 -
Charlie Kelman Barnsley Actif 109 / 113 40% 1 31.05.2028 -
André Miranda Porto Actif 120 / 118 40% 7 30.05.2028 -
Gabe Forsyth Colchester United Actif 120 / 110 40% 6 29.05.2028 -
Alphadjo Cissé Lecce Actif 127 / 137 40% 3 29.05.2028 -
Jamal Iddrissou Pergolettese Actif 101 / 119 40% 1 29.05.2028 -
Gaël Lafont Dolomiti Bellunesi Actif 112 / 115 40% 3 27.05.2028 -
Bernardo Lima Porto Actif 99 / 122 40% 4 25.05.2028 -
Josh Nichols Oldham Athletic Actif 122 / 124 40% 12 25.05.2028 -
Luca Meirelles Kudrivka Actif 130 / 131 40% 7 23.05.2028 -
Nana Nuhu WAFA Actif 85 / 102 40% 5 23.05.2028 -
Giovanni Cantizano Fulham Actif 115 / 131 40% 2 23.05.2028 -
Jan Bürger Northampton Town Actif 112 / 120 40% 5 22.05.2028 -
Tyler Fletcher Rotherham United Actif 114 / 124 40% 11 22.05.2028 -
Daniel Banjaqui Benfica Actif 125 / 129 40% 9 20.05.2028 -
Luca Williams-Barnett Walsall Actif 127 / 121 40% 9 20.05.2028 -
Ryan Kavuma-McQueen Accrington Stanley Actif 123 / 129 40% 9 20.05.2028 -
Gilbert Bandama Hapoel Kfar Saba Actif 126 / 115 40% 8 19.05.2028 Observer
Gabriel Mec Feirense Actif 121 / 135 40% 8 18.05.2028 -
Isaque Obolon Actif 126 / 136 40% 2 13.05.2028 -
Kerim Alajbegović Modena Actif 141 / 140 40% 4 12.05.2028 -
Jorthy Mokio ADO Den Haag Actif 123 / 145 40% 5 12.05.2028 -
Luke Brooke-Smith Chesterfield Actif 99 / 105 40% 1 11.05.2028 -
Henrique Carmo Sochi Actif 126 / 139 40% 5 30.04.2028 -
Tomás Peixoto Porto Actif 98 / 113 40% 1 30.04.2028 -
Ibrahim Fullah Charlton Athletic Actif 112 / 130 40% 7 29.04.2028 -
Peter Amidu Acquah Asante Kotoko Actif 90 / 110 40% 1 29.04.2028 -
İsak Vural Audace Cerignola Actif 124 / 128 40% 1 27.04.2028 -
Leo Pecover Swindon Town Actif 89 / 107 40% 6 25.04.2028 -
Igor Tyjon Barrow AFC Actif 114 / 119 40% 3 25.04.2028 -
Shea Lacey Crystal Palace Actif 137 / 143 40% 1 16.04.2028 -
Amin Nabizada Exeter City Actif 106 / 124 40% 2 14.04.2028 -
Oskar Pietuszewski Estrela da Amadora Actif 126 / 129 40% 5 03.04.2028 -
Ryan McAidoo Oldham Athletic Actif 120 / 123 40% 2 03.04.2028 -
Siyabonga Mabena Bidvest Wits Actif 115 / 126 40% 3 30.03.2028 -
Gomolemo Kekana Maritzburg United Actif 117 / 117 40% 1 29.03.2028 -
Trey Nyoni Rotherham United Actif 136 / 138 40% 8 22.03.2028 -
Ben Broggio Mansfield Town Actif 109 / 110 40% 2 22.03.2028 -
Martim Cunha Porto Actif 109 / 115 40% 4 18.03.2028 -
Jake Evans Crewe Alexandra Actif 103 / 114 40% 4 13.03.2028 -
Lander Astiazarán Real Sociedad Actif 114 / 122 40% 2 10.03.2028 -
Oscar Schwartau Norwich City Actif 121 / 139 40% 3 10.03.2028 -
Omar Khedr Gillingham Actif 108 / 125 40% 1 08.03.2028 -
Alwande Booysen SuperSport United Actif 89 / 111 40% 2 01.03.2028 -
Lewis Orford Crewe Alexandra Actif 118 / 114 40% 1 11.02.2028 -
Seb Ferdinand Rotherham United Actif 113 / 128 40% 1 03.01.2028 -
Luka Andrade Montevideo City Torque Actif 104 / 104 40% 1 03.01.2028 -
Tobías Cervera Gimnasia y Esgrima Actif 127 / 118 40% 1 31.12.2027 -
Alexis Cuello San Lorenzo Actif 135 / 131 40% 1 31.12.2027 -
Rodrigo Bogarín Barracas Central Actif 124 / 125 40% 1 31.12.2027 -
Amine Boukamir Charleroi Actif 109 / 117 40% 3 30.12.2027 -
Hosea Michael Remo Stars Actif 81 / 96 40% 8 30.12.2027 -
Victor Hernandez Santa Fe Actif 127 / 129 40% 6 29.12.2027 -
Lucas Camejo River Plate Actif 88 / 92 40% 8 27.12.2027 -
Azizbek To'lqinbekov Bunyodkor Actif 102 / 104 40% 9 26.12.2027 -
Giovanni Leoni Lincoln City Actif 141 / 143 40% 6 26.12.2027 -
Esquerdinha Notts County Actif 125 / 134 40% 5 25.12.2027 -
Olaniyi Saheed Kwara United Actif 87 / 102 40% 2 24.12.2027 -
Matias Siltanen Malmo FF Actif 113 / 131 40% 9 22.12.2027 -
Francisco Machis Llaneros Actif 86 / 96 40% 6 19.12.2027 -
Daniel Idoko Ikorodu City Actif 94 / 101 40% 5 17.12.2027 -
Ignacio Fernández Boston River Actif 84 / 94 40% 4 17.12.2027 -
David Asayure Lokomotivi Actif 87 / 79 40% 1 17.12.2027 -
Mohamed Moussa Koïta Mathare United Actif 86 / 106 40% 4 16.12.2027 -
Onyeuche Ujunwa Ikorodu City Actif 97 / 97 40% 5 15.12.2027 -
Matías Canedo Rampla Juniors Actif 86 / 97 40% 4 14.12.2027 -
Jon Esenga IF Elfsborg Actif 84 / 105 40% 1 14.12.2027 -
Nicolas Sport Recife Actif 99 / 116 40% 2 11.12.2027 -
Olivier Mambwa Young Boys Actif 106 / 118 40% 1 11.12.2027 -
Tiago Gordillo San Miguel Actif 82 / 95 40% 5 09.12.2027 -
Joel Ezra Enyimba Actif 102 / 96 40% 4 08.12.2027 -
Gideon Manaseh Ikorodu City Actif 82 / 99 40% 2 06.12.2027 -
Ivan Borges Defensores Actif 86 / 85 40% 7 19.11.2027 -
Adrian Skogmar Malmo FF Actif 119 / 120 40% 3 08.11.2027 -
David Damboama El-Kanemi Warriors Actif 91 / 86 40% 3 07.11.2027 -
Lucas Nicol Mjondalen Actif 68 / 89 40% 1 06.11.2027 -
Hugo Rojas Instituto Actif 106 / 109 40% 1 01.11.2027 -
Nahuel Leivas Montevideo City Torque Actif 97 / 103 40% 1 31.10.2027 -
Santiago Colidio Liepaja Actif 88 / 100 40% 1 27.10.2027 -
Godwin Oham Warri Wolves Actif 96 / 87 40% 4 26.10.2027 -
Dato Chakvetadze Zugdidi Actif 99 / 101 40% 1 23.10.2027 -
Honest Ahanor Atalanta Actif 143 / 148 40% 1 22.10.2027 -
Matthew Litherland Harrogate Town Actif 112 / 112 40% 1 21.10.2027 -
Diego Vargas Universidad de Concepcion Actif 93 / 97 40% 2 20.10.2027 -
Esteban de Lima Tacuarembo Actif 94 / 93 40% 1 19.10.2027 -
Agustín Obregón River Plate Actif 106 / 121 40% 1 16.10.2027 -
Luciano Posadas Central Córdoba SdE Actif 90 / 99 40% 1 16.10.2027 -
Yiandro Raap Ilves Actif 95 / 106 40% 2 11.10.2027 -
Yury Oyarzo Racing Actif 86 / 96 40% 1 11.10.2027 -
Juan Camilo Córdoba Deportivo Pereira Actif 79 / 92 40% 2 06.10.2027 -
Nazareno Roselli Defensa y Justicia Actif 111 / 115 40% 1 28.09.2027 -
Chibueze Oputa Rangers International Actif 93 / 82 40% 2 24.09.2027 -
Mpho Khethang FC Diarra Actif 89 / 94 40% 6 22.09.2027 -
Eliás Montiel Borussia Dortmund Actif 139 / 132 40% 2 22.09.2027 -
Lucan Louw US Bougouni Actif 79 / 97 40% 1 18.09.2027 -
Onuorah Onyedika Kun Khalifat Actif 85 / 84 40% 1 13.09.2027 -
Oscar Steinke Brånby Hammarby Actif 107 / 112 40% 1 13.09.2027 -
Celías Ingenthron Platense Actif 113 / 119 40% 1 12.09.2027 -
Sascha Britschgi AC Milan Actif 117 / 130 40% 4 11.08.2027 -
Federico Matarán Giana Erminio Actif 110 / 104 40% 3 11.08.2027 -
Gonçalo Oliveira Benfica Actif 112 / 113 40% 8 07.08.2027 -
Leandro Martins Benfica Actif 108 / 105 40% 11 07.08.2027 -
Ronan Kpakio AC Milan Actif 110 / 134 40% 1 07.08.2027 -
Edwin Asamoah Berekum Chelsea Actif 84 / 79 40% 11 06.08.2027 -
Matthew Targett Hull City Actif 124 / 133 40% 1 05.08.2027 -
Mats Egbring Heerenveen Actif 92 / 109 40% 1 05.08.2027 -
Pedro Vian Seewald Dolomiti Bellunesi Actif 94 / 108 40% 1 04.08.2027 -
Gaetano Castrovilli Cesena Actif 127 / 141 40% 1 02.08.2027 -
Mikey Johnston West Bromwich Albion Actif 125 / 115 40% 1 02.08.2027 -
Sam Bell Bristol City Actif 136 / 121 40% 1 02.08.2027 -
Joel Bagan Cardiff City Actif 113 / 121 40% 1 26.07.2027 -
Hector Kyprianou Watford Actif 118 / 129 40% 1 26.07.2027 -
Mario Pašalić Atalanta Actif 146 / 140 40% 1 14.07.2027 -
Isaiah Jones Luton Town Actif 131 / 126 40% 1 14.07.2027 -
Zane Albarus Shrewsbury Town Actif 106 / 111 40% 1 13.07.2027 -
Kiani Inge Groningen Actif 113 / 116 40% 5 10.07.2027 -
Charlie Gray Fleetwood Town Actif 91 / 92 40% 3 07.07.2027 -
Andrea Bertoncini Triestina Actif 85 / 95 40% 4 06.07.2027 -
Guy Dezent Maccabi Petach Tikva Actif 100 / 100 40% 1 04.07.2027 -
George Hoddle Cambridge United Actif 77 / 91 40% 2 03.07.2027 -
Miguel Figueiredo Benfica Actif 106 / 128 40% 6 26.06.2027 -
Olalekan Adeleke Remo Stars Actif 95 / 85 40% 1 24.06.2027 -
Romuald Sawadogo Hapoel Raanana Perdu 90 / 96 40% 6 23.06.2027 -
Daniel Dennis Ikorodu City Actif 97 / 105 40% 1 23.06.2027 -
Teboho Mokoena Black Aces Actif 88 / 96 40% 4 22.06.2027 -
Tiago Freitas Benfica Actif 106 / 121 40% 8 21.06.2027 -
Riley Owen Stevenage Actif 101 / 107 40% 9 14.06.2027 -
Sam Greenwood Bristol City Actif 116 / 126 40% 1 02.06.2027 -
Che Adams Torino Actif 145 / 139 40% 1 31.05.2027 -
Ettore Gliozzi Mantova Actif 109 / 113 40% 1 31.05.2027 -
Rivaldo Mkhize Black Aces Actif 84 / 87 40% 6 30.05.2027 -
Kazunari Kita Real Sociedad Actif 97 / 100 40% 3 30.05.2027 -
Ahmed Akinyele Remo Stars Actif 98 / 92 40% 1 30.05.2027 -
Jenson Jones Walsall Actif 102 / 107 40% 4 29.05.2027 -
Bence Dárdai VfL Wolfsburg Actif 135 / 130 40% 2 29.05.2027 -
Wessel Kuhn PSV Actif 112 / 112 40% 1 27.05.2027 -
Rhys Walters Port Vale Actif 98 / 115 40% 2 26.05.2027 -
Chari Giwa US Bougouni Actif 69 / 73 40% 1 25.05.2027 -
Issa Yusuf Shooting Stars Actif 77 / 85 40% 1 23.05.2027 -
Olivier Leroux Mouscron Actif 89 / 106 40% 3 20.05.2027 -
Riyad Idrissi Cagliari Actif 134 / 126 40% 2 12.05.2027 -
Ezra Mayers West Ham United Actif 120 / 132 40% 4 12.05.2027 -
Konta Ismaily Actif 100 / 88 40% 1 02.05.2027 -
Maldini Kacurri Grimsby Town Actif 84 / 98 40% 1 29.04.2027 -
David Ozoh Derby County Actif 121 / 126 40% 2 22.04.2027 -
James Dornelly Peterborough United Actif 97 / 104 40% 1 03.04.2027 -
Alessandro Zoboletti Sambenedettese Actif 81 / 91 40% 1 01.04.2027 -
Cemran Dansin Orlando Pirates Actif 105 / 106 40% 4 24.03.2027 -
Caleb Yirenkyi Coventry City Actif 134 / 149 40% 1 20.03.2027 -
Samuele di Benedetto Twente Actif 118 / 115 40% 1 19.03.2027 -
Afriyie Sulemana WAFA Actif 91 / 86 40% 1 09.03.2027 -
Kamaldeen Atiemo Wa All Stars Actif 110 / 104 40% 1 03.03.2027 -
Kubrat Onasci Septemvri Actif 101 / 108 40% 1 28.02.2027 -
Maxim Radchenko Rostov Actif 88 / 97 40% 1 21.02.2027 -
Alexandr Burkov Rodina M Actif 79 / 73 40% 1 15.02.2027 -
Kyllian Antonio RC Lens Actif 109 / 106 40% 1 04.02.2027 -
Igor Zlatanović Hapoel Beer Sheva Actif 115 / 124 40% 1 31.01.2027 -
Simphiwe Selepe Orlando Pirates Actif 116 / 127 40% 3 27.01.2027 -
Per Kloosterboer Utrecht Actif 85 / 110 40% 1 17.01.2027 -
Diogo Monteiro Tondela Actif 112 / 105 40% 2 16.01.2027 -
Ivan Shilenok Zenit Actif 82 / 94 40% 1 14.01.2027 -
Arthur Gomes Dinamo Moscow Actif 114 / 132 40% 5 01.01.2027 -
Younes Ebnoutalib Eintracht Frankfurt Actif 119 / 133 40% 1 01.01.2027 -
Kwadwo Duah Ludogorets Actif 133 / 135 40% 10 28.12.2026 -
Franko Kovačević Ferencvaros Actif 116 / 115 40% 5 27.12.2026 -
Egas Cacintura Akhmat Grozny Actif 116 / 112 40% 4 21.12.2026 -
Ioannis Pittas CSKA Sofia Actif 123 / 116 40% 4 20.12.2026 -
Tio Cipot NK Maribor Actif 126 / 111 40% 5 17.12.2026 -
Sam Amo-Ameyaw RC Strasbourg Actif 118 / 124 40% 1 15.12.2026 -
Patrik Kovács Fehervar Actif 109 / 98 40% 1 14.12.2026 -
Ivo Mammini Beitar Jerusalem Actif 117 / 119 40% 1 07.12.2026 -
Hamode Kanaan Hapoel Beer Sheva Actif 124 / 123 40% 5 05.12.2026 Observer
Samuel Kalu Botev Plovdiv Actif 125 / 120 40% 3 28.11.2026 -
Federico Martínez MFK Ruzomberok Actif 107 / 122 40% 9 21.11.2026 -
Ammar Ramadan DAC Dunajska Streda Actif 115 / 124 40% 2 21.11.2026 -
Ido Cohen Maccabi Petach Tikva Actif 101 / 99 40% 1 19.11.2026 -
Matej Trusa DAC Dunajska Streda Actif 125 / 108 40% 1 15.11.2026 -
Mirlind Daku Spartak Moscow Actif 124 / 128 40% 4 12.11.2026 -
Ilja Rozhkov Rubin Actif 110 / 113 40% 1 08.11.2026 -
Maximiliano Gómez Nacional Actif 128 / 120 40% 2 05.11.2026 -
Matheus Davó Maccabi Netanya Actif 110 / 111 40% 2 01.11.2026 -
Gaspar Duarte Rosario Central Actif 112 / 123 40% 1 01.11.2026 -
Yuki Ohashi Hapoel Tel Aviv Actif 110 / 124 40% 2 22.10.2026 -
Terem Moffi Hamburger SV Actif 130 / 138 40% 7 17.10.2026 -
Manfred Ugalde Spartak Moscow Actif 119 / 126 40% 2 15.10.2026 -
Law McCabe Middlesbrough Actif 101 / 120 40% 1 12.10.2026 -
Thiago Acosta River Plate Actif 105 / 117 40% 1 12.10.2026 -
François Kamano Sochi Actif 110 / 116 40% 2 08.10.2026 -
Matheus Aiás Noah Actif 130 / 125 40% 2 07.10.2026 -
Roman Dixon Walsall Actif 90 / 99 40% 1 05.10.2026 -
José Cabrera Union Magdalena Actif 93 / 86 40% 1 05.10.2026 -
Maeson King Hull City Actif 101 / 114 40% 1 05.10.2026 -
Stanislav Ivanov Arda Actif 108 / 119 40% 1 02.10.2026 -
Ramiro Ruiz Rodríguez Atlético Tucumán Actif 121 / 124 40% 3 26.09.2026 -
Mustapha Sangaré Levski Actif 104 / 115 40% 1 26.09.2026 -
Leandro Godoy CSKA Sofia Actif 110 / 124 40% 2 20.09.2026 -
Marcelo Torres Gimnasia La Plata Actif 111 / 113 40% 2 19.09.2026 -
Husain Norchayev Navbahor Actif 110 / 113 40% 1 19.09.2026 -
Yarden Shua Beitar Jerusalem Actif 125 / 133 40% 1 19.09.2026 -
Tamerlan Musaev CSKA Moscow Actif 107 / 120 40% 2 13.09.2026 -
Armstrong Oko-Flex Levski Actif 107 / 128 40% 1 09.09.2026 -
Mykola Kukharevych Slovan Bratislava Actif 107 / 121 40% 1 07.09.2026 -
Sam Lammers PSV Actif 110 / 117 40% 2 24.08.2026 -
Miodrag Pivaš Newcastle United Actif 106 / 103 40% 1 19.08.2026 -
Valentín Culasso Talleres Actif 90 / 101 40% 1 03.08.2026 -